sensor_id;sensor_type;location;lat;lon;timestamp;P1;durP1;ratioP1;P2;durP2;ratioP2
9188;SDS011;34313;50.780;6.084;2023-09-07T00:01:15;6.13;;;5.03;;
9188;SDS011;34313;50.780;6.084;2023-09-07T00:03:46;9.90;;;6.77;;
9188;SDS011;34313;50.780;6.084;2023-09-07T00:06:11;11.30;;;6.60;;
9188;SDS011;34313;50.780;6.084;2023-09-07T00:08:40;9.27;;;6.30;;
9188;SDS011;34313;50.780;6.084;2023-09-07T00:11:08;7.50;;;5.70;;
9188;SDS011;34313;50.780;6.084;2023-09-07T00:13:39;6.23;;;5.40;;
9188;SDS011;34313;50.780;6.084;2023-09-07T00:16:05;6.43;;;5.43;;
9188;SDS011;34313;50.780;6.084;2023-09-07T00:18:36;6.80;;;5.50;;
9188;SDS011;34313;50.780;6.084;2023-09-07T00:21:02;6.10;;;5.30;;
9188;SDS011;34313;50.780;6.084;2023-09-07T00:23:31;8.70;;;5.40;;
9188;SDS011;34313;50.780;6.084;2023-09-07T00:25:57;6.43;;;5.00;;
9188;SDS011;34313;50.780;6.084;2023-09-07T00:28:25;10.67;;;5.30;;
9188;SDS011;34313;50.780;6.084;2023-09-07T00:30:51;7.60;;;5.63;;
9188;SDS011;34313;50.780;6.084;2023-09-07T00:33:19;6.67;;;5.03;;
9188;SDS011;34313;50.780;6.084;2023-09-07T00:35:48;6.83;;;4.87;;
9188;SDS011;34313;50.780;6.084;2023-09-07T00:38:21;7.47;;;5.27;;
9188;SDS011;34313;50.780;6.084;2023-09-07T00:40:50;6.70;;;4.90;;
9188;SDS011;34313;50.780;6.084;2023-09-07T00:43:29;7.83;;;5.40;;
9188;SDS011;34313;50.780;6.084;2023-09-07T00:46:00;10.77;;;5.67;;
9188;SDS011;34313;50.780;6.084;2023-09-07T00:48:35;6.27;;;4.73;;
9188;SDS011;34313;50.780;6.084;2023-09-07T00:51:06;8.23;;;4.80;;
9188;SDS011;34313;50.780;6.084;2023-09-07T00:53:40;5.53;;;5.00;;
9188;SDS011;34313;50.780;6.084;2023-09-07T00:56:07;6.30;;;5.40;;
9188;SDS011;34313;50.780;6.084;2023-09-07T01:01:08;6.50;;;5.07;;
9188;SDS011;34313;50.780;6.084;2023-09-07T01:03:34;6.03;;;4.60;;
9188;SDS011;34313;50.780;6.084;2023-09-07T01:06:01;9.30;;;5.40;;
9188;SDS011;34313;50.780;6.084;2023-09-07T01:08:36;5.50;;;4.77;;
9188;SDS011;34313;50.780;6.084;2023-09-07T01:11:14;7.37;;;5.40;;
9188;SDS011;34313;50.780;6.084;2023-09-07T01:13:40;6.73;;;4.87;;
9188;SDS011;34313;50.780;6.084;2023-09-07T01:16:06;6.60;;;5.20;;
9188;SDS011;34313;50.780;6.084;2023-09-07T01:18:32;6.50;;;5.23;;
9188;SDS011;34313;50.780;6.084;2023-09-07T01:20:58;6.50;;;5.43;;
9188;SDS011;34313;50.780;6.084;2023-09-07T01:23:28;5.63;;;4.40;;
9188;SDS011;34313;50.780;6.084;2023-09-07T01:25:53;6.30;;;4.93;;
9188;SDS011;34313;50.780;6.084;2023-09-07T01:28:20;6.83;;;4.83;;
9188;SDS011;34313;50.780;6.084;2023-09-07T01:30:46;6.77;;;6.07;;
9188;SDS011;34313;50.780;6.084;2023-09-07T01:33:12;5.57;;;4.53;;
9188;SDS011;34313;50.780;6.084;2023-09-07T01:35:37;6.20;;;5.10;;
9188;SDS011;34313;50.780;6.084;2023-09-07T01:38:04;5.17;;;4.53;;
9188;SDS011;34313;50.780;6.084;2023-09-07T01:40:29;5.30;;;4.80;;
9188;SDS011;34313;50.780;6.084;2023-09-07T01:42:54;5.57;;;4.97;;
9188;SDS011;34313;50.780;6.084;2023-09-07T01:45:19;6.40;;;4.97;;
9188;SDS011;34313;50.780;6.084;2023-09-07T01:47:45;5.77;;;5.23;;
9188;SDS011;34313;50.780;6.084;2023-09-07T01:50:10;5.90;;;4.57;;
9188;SDS011;34313;50.780;6.084;2023-09-07T01:52:36;7.30;;;5.50;;
9188;SDS011;34313;50.780;6.084;2023-09-07T01:55:01;9.20;;;6.17;;
9188;SDS011;34313;50.780;6.084;2023-09-07T01:57:26;7.87;;;5.57;;
9188;SDS011;34313;50.780;6.084;2023-09-07T01:59:52;6.37;;;5.20;;
9188;SDS011;34313;50.780;6.084;2023-09-07T02:02:17;6.10;;;5.40;;
9188;SDS011;34313;50.780;6.084;2023-09-07T02:04:42;7.83;;;4.97;;
9188;SDS011;34313;50.780;6.084;2023-09-07T02:07:11;6.40;;;4.93;;
9188;SDS011;34313;50.780;6.084;2023-09-07T02:09:36;11.63;;;5.30;;
9188;SDS011;34313;50.780;6.084;2023-09-07T02:12:02;6.90;;;4.90;;
9188;SDS011;34313;50.780;6.084;2023-09-07T02:14:29;6.70;;;5.10;;
9188;SDS011;34313;50.780;6.084;2023-09-07T02:16:54;5.77;;;4.47;;
9188;SDS011;34313;50.780;6.084;2023-09-07T02:19:19;7.10;;;5.50;;
9188;SDS011;34313;50.780;6.084;2023-09-07T02:21:47;8.27;;;5.27;;
9188;SDS011;34313;50.780;6.084;2023-09-07T02:24:13;5.97;;;4.90;;
9188;SDS011;34313;50.780;6.084;2023-09-07T02:26:38;9.07;;;5.30;;
9188;SDS011;34313;50.780;6.084;2023-09-07T02:29:08;7.20;;;5.60;;
9188;SDS011;34313;50.780;6.084;2023-09-07T02:31:34;6.37;;;5.13;;
9188;SDS011;34313;50.780;6.084;2023-09-07T02:33:59;7.53;;;6.10;;
9188;SDS011;34313;50.780;6.084;2023-09-07T02:36:24;5.50;;;5.00;;
9188;SDS011;34313;50.780;6.084;2023-09-07T02:38:49;5.93;;;5.30;;
9188;SDS011;34313;50.780;6.084;2023-09-07T02:41:15;6.23;;;5.23;;
9188;SDS011;34313;50.780;6.084;2023-09-07T02:43:40;6.00;;;5.40;;
9188;SDS011;34313;50.780;6.084;2023-09-07T02:46:05;5.63;;;5.10;;
9188;SDS011;34313;50.780;6.084;2023-09-07T02:48:31;6.53;;;5.83;;
9188;SDS011;34313;50.780;6.084;2023-09-07T02:50:56;7.27;;;6.00;;
9188;SDS011;34313;50.780;6.084;2023-09-07T02:53:23;7.57;;;5.90;;
9188;SDS011;34313;50.780;6.084;2023-09-07T02:55:49;7.07;;;5.00;;
9188;SDS011;34313;50.780;6.084;2023-09-07T02:58:14;8.90;;;5.97;;
9188;SDS011;34313;50.780;6.084;2023-09-07T03:00:43;7.87;;;5.60;;
9188;SDS011;34313;50.780;6.084;2023-09-07T03:03:09;6.60;;;5.27;;
9188;SDS011;34313;50.780;6.084;2023-09-07T03:05:35;6.50;;;5.83;;
9188;SDS011;34313;50.780;6.084;2023-09-07T03:08:00;16.73;;;5.83;;
9188;SDS011;34313;50.780;6.084;2023-09-07T03:10:25;6.73;;;6.00;;
9188;SDS011;34313;50.780;6.084;2023-09-07T03:12:50;7.73;;;6.20;;
9188;SDS011;34313;50.780;6.084;2023-09-07T03:15:17;6.83;;;5.90;;
9188;SDS011;34313;50.780;6.084;2023-09-07T03:17:43;6.80;;;6.10;;
9188;SDS011;34313;50.780;6.084;2023-09-07T03:20:08;6.97;;;5.70;;
9188;SDS011;34313;50.780;6.084;2023-09-07T03:22:41;8.87;;;6.13;;
9188;SDS011;34313;50.780;6.084;2023-09-07T03:25:07;6.20;;;5.57;;
9188;SDS011;34313;50.780;6.084;2023-09-07T03:27:33;7.30;;;6.10;;
9188;SDS011;34313;50.780;6.084;2023-09-07T03:29:58;6.37;;;5.13;;
9188;SDS011;34313;50.780;6.084;2023-09-07T03:32:24;7.50;;;5.73;;
9188;SDS011;34313;50.780;6.084;2023-09-07T03:34:51;7.43;;;6.63;;
9188;SDS011;34313;50.780;6.084;2023-09-07T03:37:17;6.30;;;5.40;;
9188;SDS011;34313;50.780;6.084;2023-09-07T03:39:42;6.60;;;5.90;;
9188;SDS011;34313;50.780;6.084;2023-09-07T03:42:07;8.83;;;6.57;;
9188;SDS011;34313;50.780;6.084;2023-09-07T03:44:32;9.23;;;6.73;;
9188;SDS011;34313;50.780;6.084;2023-09-07T03:46:58;6.87;;;6.10;;
9188;SDS011;34313;50.780;6.084;2023-09-07T03:49:25;9.83;;;6.80;;
9188;SDS011;34313;50.780;6.084;2023-09-07T03:51:50;7.33;;;6.30;;
9188;SDS011;34313;50.780;6.084;2023-09-07T03:54:16;6.20;;;5.57;;
9188;SDS011;34313;50.780;6.084;2023-09-07T03:56:41;8.33;;;6.77;;
9188;SDS011;34313;50.780;6.084;2023-09-07T03:59:06;10.57;;;6.30;;
9188;SDS011;34313;50.780;6.084;2023-09-07T04:01:32;6.70;;;6.00;;
9188;SDS011;34313;50.780;6.084;2023-09-07T04:03:58;11.50;;;6.43;;
9188;SDS011;34313;50.780;6.084;2023-09-07T04:06:23;7.30;;;6.40;;
9188;SDS011;34313;50.780;6.084;2023-09-07T04:08:49;9.40;;;7.07;;
9188;SDS011;34313;50.780;6.084;2023-09-07T04:11:14;10.43;;;6.77;;
9188;SDS011;34313;50.780;6.084;2023-09-07T04:13:39;7.13;;;6.30;;
9188;SDS011;34313;50.780;6.084;2023-09-07T04:16:04;7.80;;;5.90;;
9188;SDS011;34313;50.780;6.084;2023-09-07T04:18:30;9.73;;;6.60;;
9188;SDS011;34313;50.780;6.084;2023-09-07T04:21:04;8.73;;;6.10;;
9188;SDS011;34313;50.780;6.084;2023-09-07T04:23:30;8.00;;;6.50;;
9188;SDS011;34313;50.780;6.084;2023-09-07T04:26:03;9.03;;;7.10;;
9188;SDS011;34313;50.780;6.084;2023-09-07T04:28:30;8.43;;;5.73;;
9188;SDS011;34313;50.780;6.084;2023-09-07T04:30:56;7.60;;;6.50;;
9188;SDS011;34313;50.780;6.084;2023-09-07T04:33:21;7.97;;;6.27;;
9188;SDS011;34313;50.780;6.084;2023-09-07T04:35:46;9.20;;;6.90;;
9188;SDS011;34313;50.780;6.084;2023-09-07T04:38:11;9.23;;;6.37;;
9188;SDS011;34313;50.780;6.084;2023-09-07T04:40:37;6.73;;;5.93;;
9188;SDS011;34313;50.780;6.084;2023-09-07T04:43:02;13.13;;;6.67;;
9188;SDS011;34313;50.780;6.084;2023-09-07T04:45:27;9.47;;;6.70;;
9188;SDS011;34313;50.780;6.084;2023-09-07T04:47:53;7.60;;;6.80;;
9188;SDS011;34313;50.780;6.084;2023-09-07T04:50:18;11.37;;;6.80;;
9188;SDS011;34313;50.780;6.084;2023-09-07T04:52:43;10.20;;;7.17;;
9188;SDS011;34313;50.780;6.084;2023-09-07T04:55:09;9.63;;;6.70;;
9188;SDS011;34313;50.780;6.084;2023-09-07T04:57:35;11.07;;;6.73;;
9188;SDS011;34313;50.780;6.084;2023-09-07T05:00:01;7.83;;;6.37;;
9188;SDS011;34313;50.780;6.084;2023-09-07T05:02:28;9.00;;;6.50;;
9188;SDS011;34313;50.780;6.084;2023-09-07T05:04:53;7.10;;;6.40;;
9188;SDS011;34313;50.780;6.084;2023-09-07T05:07:19;6.63;;;5.93;;
9188;SDS011;34313;50.780;6.084;2023-09-07T05:09:44;10.37;;;6.87;;
9188;SDS011;34313;50.780;6.084;2023-09-07T05:12:09;9.63;;;6.80;;
9188;SDS011;34313;50.780;6.084;2023-09-07T05:14:35;8.10;;;6.50;;
9188;SDS011;34313;50.780;6.084;2023-09-07T05:17:01;8.07;;;6.40;;
9188;SDS011;34313;50.780;6.084;2023-09-07T05:19:26;8.97;;;6.53;;
9188;SDS011;34313;50.780;6.084;2023-09-07T05:21:52;9.90;;;6.70;;
9188;SDS011;34313;50.780;6.084;2023-09-07T05:24:17;6.77;;;5.80;;
9188;SDS011;34313;50.780;6.084;2023-09-07T05:26:42;8.33;;;6.23;;
9188;SDS011;34313;50.780;6.084;2023-09-07T05:29:09;6.50;;;5.90;;
9188;SDS011;34313;50.780;6.084;2023-09-07T05:31:35;8.80;;;6.53;;
9188;SDS011;34313;50.780;6.084;2023-09-07T05:34:00;8.00;;;5.70;;
9188;SDS011;34313;50.780;6.084;2023-09-07T05:36:26;8.60;;;5.70;;
9188;SDS011;34313;50.780;6.084;2023-09-07T05:38:52;7.47;;;5.30;;
9188;SDS011;34313;50.780;6.084;2023-09-07T05:41:18;6.10;;;5.37;;
9188;SDS011;34313;50.780;6.084;2023-09-07T05:43:43;6.73;;;5.60;;
9188;SDS011;34313;50.780;6.084;2023-09-07T05:46:08;6.53;;;5.87;;
9188;SDS011;34313;50.780;6.084;2023-09-07T05:48:33;7.57;;;5.27;;
9188;SDS011;34313;50.780;6.084;2023-09-07T05:50:59;8.20;;;5.40;;
9188;SDS011;34313;50.780;6.084;2023-09-07T05:53:24;10.90;;;6.20;;
9188;SDS011;34313;50.780;6.084;2023-09-07T05:55:51;9.00;;;6.27;;
9188;SDS011;34313;50.780;6.084;2023-09-07T05:58:16;13.23;;;6.63;;
9188;SDS011;34313;50.780;6.084;2023-09-07T06:00:42;11.63;;;6.40;;
9188;SDS011;34313;50.780;6.084;2023-09-07T06:03:08;11.13;;;5.67;;
9188;SDS011;34313;50.780;6.084;2023-09-07T06:05:34;6.73;;;6.03;;
9188;SDS011;34313;50.780;6.084;2023-09-07T06:08:01;9.07;;;6.03;;
9188;SDS011;34313;50.780;6.084;2023-09-07T06:10:27;12.50;;;6.40;;
9188;SDS011;34313;50.780;6.084;2023-09-07T06:12:54;11.33;;;6.10;;
9188;SDS011;34313;50.780;6.084;2023-09-07T06:15:20;7.50;;;5.60;;
9188;SDS011;34313;50.780;6.084;2023-09-07T06:17:45;6.40;;;5.60;;
9188;SDS011;34313;50.780;6.084;2023-09-07T06:20:10;10.00;;;5.57;;
9188;SDS011;34313;50.780;6.084;2023-09-07T06:22:36;16.83;;;6.97;;
9188;SDS011;34313;50.780;6.084;2023-09-07T06:25:01;8.13;;;6.00;;
9188;SDS011;34313;50.780;6.084;2023-09-07T06:27:27;10.50;;;5.93;;
9188;SDS011;34313;50.780;6.084;2023-09-07T06:29:52;11.43;;;5.60;;
9188;SDS011;34313;50.780;6.084;2023-09-07T06:32:17;24.90;;;6.40;;
9188;SDS011;34313;50.780;6.084;2023-09-07T06:34:43;9.60;;;5.80;;
9188;SDS011;34313;50.780;6.084;2023-09-07T06:37:09;10.53;;;6.10;;
9188;SDS011;34313;50.780;6.084;2023-09-07T06:39:34;10.50;;;5.67;;
9188;SDS011;34313;50.780;6.084;2023-09-07T06:42:00;7.87;;;5.93;;
9188;SDS011;34313;50.780;6.084;2023-09-07T06:44:25;9.23;;;5.63;;
9188;SDS011;34313;50.780;6.084;2023-09-07T06:46:50;7.97;;;5.50;;
9188;SDS011;34313;50.780;6.084;2023-09-07T06:49:15;10.40;;;5.67;;
9188;SDS011;34313;50.780;6.084;2023-09-07T06:51:41;9.33;;;6.20;;
9188;SDS011;34313;50.780;6.084;2023-09-07T06:54:06;7.97;;;5.33;;
9188;SDS011;34313;50.780;6.084;2023-09-07T06:56:31;6.30;;;5.00;;
9188;SDS011;34313;50.780;6.084;2023-09-07T06:58:59;7.30;;;5.33;;
9188;SDS011;34313;50.780;6.084;2023-09-07T07:01:25;7.73;;;5.17;;
9188;SDS011;34313;50.780;6.084;2023-09-07T07:03:51;8.43;;;5.23;;
9188;SDS011;34313;50.780;6.084;2023-09-07T07:06:18;10.67;;;5.70;;
9188;SDS011;34313;50.780;6.084;2023-09-07T07:08:43;7.43;;;4.63;;
9188;SDS011;34313;50.780;6.084;2023-09-07T07:11:08;8.37;;;4.40;;
9188;SDS011;34313;50.780;6.084;2023-09-07T07:13:34;7.30;;;4.43;;
9188;SDS011;34313;50.780;6.084;2023-09-07T07:15:59;8.17;;;5.63;;
9188;SDS011;34313;50.780;6.084;2023-09-07T07:18:24;8.90;;;4.63;;
9188;SDS011;34313;50.780;6.084;2023-09-07T07:20:49;9.30;;;4.13;;
9188;SDS011;34313;50.780;6.084;2023-09-07T07:23:16;13.17;;;5.27;;
9188;SDS011;34313;50.780;6.084;2023-09-07T07:25:41;6.80;;;4.80;;
9188;SDS011;34313;50.780;6.084;2023-09-07T07:28:07;14.33;;;4.93;;
9188;SDS011;34313;50.780;6.084;2023-09-07T07:30:35;6.60;;;4.80;;
9188;SDS011;34313;50.780;6.084;2023-09-07T07:33:05;7.03;;;4.10;;
9188;SDS011;34313;50.780;6.084;2023-09-07T07:35:31;9.00;;;4.10;;
9188;SDS011;34313;50.780;6.084;2023-09-07T07:37:57;5.93;;;4.27;;
9188;SDS011;34313;50.780;6.084;2023-09-07T07:40:22;3.60;;;3.30;;
9188;SDS011;34313;50.780;6.084;2023-09-07T07:42:48;4.33;;;3.30;;
9188;SDS011;34313;50.780;6.084;2023-09-07T07:45:14;7.23;;;3.30;;
9188;SDS011;34313;50.780;6.084;2023-09-07T07:47:42;4.90;;;3.37;;
9188;SDS011;34313;50.780;6.084;2023-09-07T07:50:07;6.40;;;3.47;;
9188;SDS011;34313;50.780;6.084;2023-09-07T07:52:33;6.23;;;3.50;;
9188;SDS011;34313;50.780;6.084;2023-09-07T07:54:59;5.53;;;3.20;;
9188;SDS011;34313;50.780;6.084;2023-09-07T07:57:25;3.80;;;2.53;;
9188;SDS011;34313;50.780;6.084;2023-09-07T07:59:50;6.05;;;3.38;;
9188;SDS011;34313;50.780;6.084;2023-09-07T08:02:16;6.15;;;3.50;;
9188;SDS011;34313;50.780;6.084;2023-09-07T08:04:41;7.85;;;3.95;;
9188;SDS011;34313;50.780;6.084;2023-09-07T08:07:06;7.03;;;3.80;;
9188;SDS011;34313;50.780;6.084;2023-09-07T08:09:33;6.60;;;3.85;;
9188;SDS011;34313;50.780;6.084;2023-09-07T08:11:59;6.55;;;3.20;;
9188;SDS011;34313;50.780;6.084;2023-09-07T08:14:28;6.70;;;3.10;;
9188;SDS011;34313;50.780;6.084;2023-09-07T08:16:54;5.32;;;3.50;;
9188;SDS011;34313;50.780;6.084;2023-09-07T08:19:19;5.18;;;3.47;;
9188;SDS011;34313;50.780;6.084;2023-09-07T08:21:45;4.25;;;3.22;;
9188;SDS011;34313;50.780;6.084;2023-09-07T08:24:11;5.25;;;3.33;;
9188;SDS011;34313;50.780;6.084;2023-09-07T08:26:36;4.30;;;2.92;;
9188;SDS011;34313;50.780;6.084;2023-09-07T08:29:03;4.45;;;3.80;;
9188;SDS011;34313;50.780;6.084;2023-09-07T08:31:31;3.70;;;3.40;;
9188;SDS011;34313;50.780;6.084;2023-09-07T08:33:59;28.83;;;5.93;;
9188;SDS011;34313;50.780;6.084;2023-09-07T08:36:25;7.35;;;3.47;;
9188;SDS011;34313;50.780;6.084;2023-09-07T08:38:53;8.02;;;3.58;;
9188;SDS011;34313;50.780;6.084;2023-09-07T08:41:19;15.52;;;4.55;;
9188;SDS011;34313;50.780;6.084;2023-09-07T08:43:45;4.70;;;3.20;;
9188;SDS011;34313;50.780;6.084;2023-09-07T08:46:18;11.25;;;4.40;;
9188;SDS011;34313;50.780;6.084;2023-09-07T08:48:47;6.63;;;3.63;;
9188;SDS011;34313;50.780;6.084;2023-09-07T08:51:18;10.52;;;3.90;;
9188;SDS011;34313;50.780;6.084;2023-09-07T08:53:44;8.52;;;4.57;;
9188;SDS011;34313;50.780;6.084;2023-09-07T08:56:14;6.45;;;4.50;;
9188;SDS011;34313;50.780;6.084;2023-09-07T08:58:44;6.47;;;4.20;;
9188;SDS011;34313;50.780;6.084;2023-09-07T09:01:10;8.18;;;4.13;;
9188;SDS011;34313;50.780;6.084;2023-09-07T09:03:36;10.52;;;5.78;;
9188;SDS011;34313;50.780;6.084;2023-09-07T09:06:02;8.75;;;4.75;;
9188;SDS011;34313;50.780;6.084;2023-09-07T09:08:28;4.65;;;3.90;;
9188;SDS011;34313;50.780;6.084;2023-09-07T09:11:01;6.18;;;3.40;;
9188;SDS011;34313;50.780;6.084;2023-09-07T09:13:31;5.55;;;4.28;;
9188;SDS011;34313;50.780;6.084;2023-09-07T09:16:00;5.40;;;3.33;;
9188;SDS011;34313;50.780;6.084;2023-09-07T09:18:28;9.52;;;3.65;;
9188;SDS011;34313;50.780;6.084;2023-09-07T09:20:56;7.55;;;4.30;;
9188;SDS011;34313;50.780;6.084;2023-09-07T09:23:35;5.03;;;3.70;;
9188;SDS011;34313;50.780;6.084;2023-09-07T09:26:01;8.95;;;4.32;;
9188;SDS011;34313;50.780;6.084;2023-09-07T09:28:28;11.02;;;4.72;;
9188;SDS011;34313;50.780;6.084;2023-09-07T09:30:56;9.70;;;4.90;;
9188;SDS011;34313;50.780;6.084;2023-09-07T09:33:23;7.90;;;3.60;;
9188;SDS011;34313;50.780;6.084;2023-09-07T09:35:50;8.13;;;4.07;;
9188;SDS011;34313;50.780;6.084;2023-09-07T09:38:16;4.70;;;3.70;;
9188;SDS011;34313;50.780;6.084;2023-09-07T09:40:42;5.00;;;3.50;;
9188;SDS011;34313;50.780;6.084;2023-09-07T09:43:08;6.32;;;4.35;;
9188;SDS011;34313;50.780;6.084;2023-09-07T09:45:35;7.65;;;3.60;;
9188;SDS011;34313;50.780;6.084;2023-09-07T09:48:00;8.15;;;4.25;;
9188;SDS011;34313;50.780;6.084;2023-09-07T09:50:26;5.93;;;3.60;;
9188;SDS011;34313;50.780;6.084;2023-09-07T09:52:56;4.78;;;3.88;;
9188;SDS011;34313;50.780;6.084;2023-09-07T09:55:23;7.03;;;3.60;;
9188;SDS011;34313;50.780;6.084;2023-09-07T09:57:48;5.30;;;4.30;;
9188;SDS011;34313;50.780;6.084;2023-09-07T10:00:15;6.63;;;3.97;;
9188;SDS011;34313;50.780;6.084;2023-09-07T10:02:48;7.88;;;3.60;;
9188;SDS011;34313;50.780;6.084;2023-09-07T10:05:19;8.43;;;2.95;;
9188;SDS011;34313;50.780;6.084;2023-09-07T10:07:48;10.00;;;5.00;;
9188;SDS011;34313;50.780;6.084;2023-09-07T10:10:26;6.63;;;3.60;;
9188;SDS011;34313;50.780;6.084;2023-09-07T10:12:51;7.03;;;4.07;;
9188;SDS011;34313;50.780;6.084;2023-09-07T10:15:21;9.50;;;4.37;;
9188;SDS011;34313;50.780;6.084;2023-09-07T10:17:50;5.90;;;3.90;;
9188;SDS011;34313;50.780;6.084;2023-09-07T10:20:17;4.40;;;3.93;;
9188;SDS011;34313;50.780;6.084;2023-09-07T10:22:43;5.07;;;3.58;;
9188;SDS011;34313;50.780;6.084;2023-09-07T10:25:18;6.90;;;4.33;;
9188;SDS011;34313;50.780;6.084;2023-09-07T10:27:44;4.67;;;3.47;;
9188;SDS011;34313;50.780;6.084;2023-09-07T10:30:10;7.90;;;3.40;;
9188;SDS011;34313;50.780;6.084;2023-09-07T10:32:41;9.10;;;3.57;;
9188;SDS011;34313;50.780;6.084;2023-09-07T10:35:15;3.37;;;3.07;;
9188;SDS011;34313;50.780;6.084;2023-09-07T10:37:46;3.93;;;2.87;;
9188;SDS011;34313;50.780;6.084;2023-09-07T10:40:21;3.83;;;3.00;;
9188;SDS011;34313;50.780;6.084;2023-09-07T10:42:47;3.20;;;2.90;;
9188;SDS011;34313;50.780;6.084;2023-09-07T10:45:13;6.33;;;3.20;;
9188;SDS011;34313;50.780;6.084;2023-09-07T10:47:42;4.43;;;3.23;;
9188;SDS011;34313;50.780;6.084;2023-09-07T10:50:10;4.18;;;3.00;;
9188;SDS011;34313;50.780;6.084;2023-09-07T10:52:36;4.23;;;3.83;;
9188;SDS011;34313;50.780;6.084;2023-09-07T10:55:01;4.03;;;3.03;;
9188;SDS011;34313;50.780;6.084;2023-09-07T10:57:27;3.47;;;3.27;;
9188;SDS011;34313;50.780;6.084;2023-09-07T10:59:52;3.85;;;3.45;;
9188;SDS011;34313;50.780;6.084;2023-09-07T11:02:20;4.10;;;3.27;;
9188;SDS011;34313;50.780;6.084;2023-09-07T11:04:45;7.30;;;3.50;;
9188;SDS011;34313;50.780;6.084;2023-09-07T11:07:11;3.40;;;2.90;;
9188;SDS011;34313;50.780;6.084;2023-09-07T11:09:41;3.50;;;3.17;;
9188;SDS011;34313;50.780;6.084;2023-09-07T11:12:07;3.70;;;3.10;;
9188;SDS011;34313;50.780;6.084;2023-09-07T11:14:33;4.77;;;3.20;;
9188;SDS011;34313;50.780;6.084;2023-09-07T11:16:58;3.63;;;3.33;;
9188;SDS011;34313;50.780;6.084;2023-09-07T11:19:25;16.60;;;3.70;;
9188;SDS011;34313;50.780;6.084;2023-09-07T11:21:53;4.83;;;3.00;;
9188;SDS011;34313;50.780;6.084;2023-09-07T11:24:18;3.57;;;3.00;;
9188;SDS011;34313;50.780;6.084;2023-09-07T11:26:44;3.63;;;3.23;;
9188;SDS011;34313;50.780;6.084;2023-09-07T11:29:13;5.70;;;3.40;;
9188;SDS011;34313;50.780;6.084;2023-09-07T11:31:44;6.23;;;2.93;;
9188;SDS011;34313;50.780;6.084;2023-09-07T11:34:10;9.63;;;3.07;;
9188;SDS011;34313;50.780;6.084;2023-09-07T11:36:37;3.43;;;3.10;;
9188;SDS011;34313;50.780;6.084;2023-09-07T11:39:04;7.57;;;3.63;;
9188;SDS011;34313;50.780;6.084;2023-09-07T11:41:37;3.07;;;2.80;;
9188;SDS011;34313;50.780;6.084;2023-09-07T11:44:03;3.93;;;3.37;;
9188;SDS011;34313;50.780;6.084;2023-09-07T11:46:28;7.50;;;3.93;;
9188;SDS011;34313;50.780;6.084;2023-09-07T11:48:54;4.87;;;3.70;;
9188;SDS011;34313;50.780;6.084;2023-09-07T11:51:19;5.40;;;3.73;;
9188;SDS011;34313;50.780;6.084;2023-09-07T11:53:46;5.97;;;4.17;;
9188;SDS011;34313;50.780;6.084;2023-09-07T11:56:11;5.90;;;3.60;;
9188;SDS011;34313;50.780;6.084;2023-09-07T11:58:37;4.57;;;3.33;;
9188;SDS011;34313;50.780;6.084;2023-09-07T12:01:02;5.90;;;4.20;;
9188;SDS011;34313;50.780;6.084;2023-09-07T12:03:29;3.93;;;3.53;;
9188;SDS011;34313;50.780;6.084;2023-09-07T12:05:55;5.10;;;3.77;;
9188;SDS011;34313;50.780;6.084;2023-09-07T12:08:20;6.97;;;4.00;;
9188;SDS011;34313;50.780;6.084;2023-09-07T12:10:45;8.27;;;3.83;;
9188;SDS011;34313;50.780;6.084;2023-09-07T12:13:11;12.77;;;4.17;;
9188;SDS011;34313;50.780;6.084;2023-09-07T12:15:37;9.13;;;3.83;;
9188;SDS011;34313;50.780;6.084;2023-09-07T12:18:02;4.27;;;3.83;;
9188;SDS011;34313;50.780;6.084;2023-09-07T12:20:28;5.67;;;4.17;;
9188;SDS011;34313;50.780;6.084;2023-09-07T12:22:53;7.20;;;3.67;;
9188;SDS011;34313;50.780;6.084;2023-09-07T12:25:18;4.30;;;3.80;;
9188;SDS011;34313;50.780;6.084;2023-09-07T12:27:44;5.13;;;3.58;;
9188;SDS011;34313;50.780;6.084;2023-09-07T12:30:10;3.70;;;3.40;;
9188;SDS011;34313;50.780;6.084;2023-09-07T12:32:38;5.43;;;3.97;;
9188;SDS011;34313;50.780;6.084;2023-09-07T12:35:05;4.23;;;3.53;;
9188;SDS011;34313;50.780;6.084;2023-09-07T12:37:33;3.88;;;3.45;;
9188;SDS011;34313;50.780;6.084;2023-09-07T12:40:00;4.93;;;3.77;;
9188;SDS011;34313;50.780;6.084;2023-09-07T12:42:25;3.30;;;3.00;;
9188;SDS011;34313;50.780;6.084;2023-09-07T12:44:50;4.22;;;3.30;;
9188;SDS011;34313;50.780;6.084;2023-09-07T12:47:16;4.03;;;3.33;;
9188;SDS011;34313;50.780;6.084;2023-09-07T12:49:41;4.93;;;3.83;;
9188;SDS011;34313;50.780;6.084;2023-09-07T12:52:07;5.18;;;3.53;;
9188;SDS011;34313;50.780;6.084;2023-09-07T12:54:35;4.80;;;3.53;;
9188;SDS011;34313;50.780;6.084;2023-09-07T12:57:01;6.10;;;3.33;;
9188;SDS011;34313;50.780;6.084;2023-09-07T12:59:28;4.60;;;3.63;;
9188;SDS011;34313;50.780;6.084;2023-09-07T13:01:54;5.60;;;3.80;;
9188;SDS011;34313;50.780;6.084;2023-09-07T13:04:20;4.28;;;3.50;;
9188;SDS011;34313;50.780;6.084;2023-09-07T13:06:46;4.35;;;3.97;;
9188;SDS011;34313;50.780;6.084;2023-09-07T13:09:11;5.03;;;4.00;;
9188;SDS011;34313;50.780;6.084;2023-09-07T13:11:36;6.25;;;3.67;;
9188;SDS011;34313;50.780;6.084;2023-09-07T13:14:02;6.53;;;4.00;;
9188;SDS011;34313;50.780;6.084;2023-09-07T13:16:27;3.97;;;3.45;;
9188;SDS011;34313;50.780;6.084;2023-09-07T13:18:52;6.70;;;3.88;;
9188;SDS011;34313;50.780;6.084;2023-09-07T13:21:18;7.00;;;3.78;;
9188;SDS011;34313;50.780;6.084;2023-09-07T13:23:44;7.60;;;3.55;;
9188;SDS011;34313;50.780;6.084;2023-09-07T13:26:11;4.43;;;4.00;;
9188;SDS011;34313;50.780;6.084;2023-09-07T13:28:37;5.57;;;3.40;;
9188;SDS011;34313;50.780;6.084;2023-09-07T13:31:02;10.03;;;4.10;;
9188;SDS011;34313;50.780;6.084;2023-09-07T13:33:28;6.50;;;3.90;;
9188;SDS011;34313;50.780;6.084;2023-09-07T13:35:54;5.38;;;4.43;;
9188;SDS011;34313;50.780;6.084;2023-09-07T13:38:20;9.15;;;3.70;;
9188;SDS011;34313;50.780;6.084;2023-09-07T13:40:45;5.53;;;3.75;;
9188;SDS011;34313;50.780;6.084;2023-09-07T13:43:11;5.45;;;4.18;;
9188;SDS011;34313;50.780;6.084;2023-09-07T13:45:36;3.80;;;3.15;;
9188;SDS011;34313;50.780;6.084;2023-09-07T13:48:01;4.28;;;3.85;;
9188;SDS011;34313;50.780;6.084;2023-09-07T13:50:27;5.43;;;4.13;;
9188;SDS011;34313;50.780;6.084;2023-09-07T13:52:54;4.28;;;3.50;;
9188;SDS011;34313;50.780;6.084;2023-09-07T13:55:19;6.70;;;4.10;;
9188;SDS011;34313;50.780;6.084;2023-09-07T13:57:45;5.97;;;3.88;;
9188;SDS011;34313;50.780;6.084;2023-09-07T14:00:10;5.65;;;4.30;;
9188;SDS011;34313;50.780;6.084;2023-09-07T14:02:36;6.30;;;4.32;;
9188;SDS011;34313;50.780;6.084;2023-09-07T14:05:01;4.18;;;3.78;;
9188;SDS011;34313;50.780;6.084;2023-09-07T14:07:27;6.27;;;4.10;;
9188;SDS011;34313;50.780;6.084;2023-09-07T14:09:56;6.10;;;3.53;;
9188;SDS011;34313;50.780;6.084;2023-09-07T14:12:21;6.20;;;4.00;;
9188;SDS011;34313;50.780;6.084;2023-09-07T14:14:49;5.20;;;4.07;;
9188;SDS011;34313;50.780;6.084;2023-09-07T14:17:15;10.10;;;3.70;;
9188;SDS011;34313;50.780;6.084;2023-09-07T14:19:40;6.35;;;3.60;;
9188;SDS011;34313;50.780;6.084;2023-09-07T14:22:06;4.75;;;3.20;;
9188;SDS011;34313;50.780;6.084;2023-09-07T14:24:31;12.43;;;4.88;;
9188;SDS011;34313;50.780;6.084;2023-09-07T14:26:56;7.65;;;3.33;;
9188;SDS011;34313;50.780;6.084;2023-09-07T14:29:22;7.10;;;3.85;;
9188;SDS011;34313;50.780;6.084;2023-09-07T14:31:47;9.77;;;3.83;;
9188;SDS011;34313;50.780;6.084;2023-09-07T14:34:13;11.73;;;4.20;;
9188;SDS011;34313;50.780;6.084;2023-09-07T14:36:38;5.55;;;3.55;;
9188;SDS011;34313;50.780;6.084;2023-09-07T14:39:07;5.27;;;3.63;;
9188;SDS011;34313;50.780;6.084;2023-09-07T14:41:34;5.65;;;3.55;;
9188;SDS011;34313;50.780;6.084;2023-09-07T14:44:00;5.55;;;4.03;;
9188;SDS011;34313;50.780;6.084;2023-09-07T14:46:25;4.00;;;3.70;;
9188;SDS011;34313;50.780;6.084;2023-09-07T14:48:51;8.30;;;3.65;;
9188;SDS011;34313;50.780;6.084;2023-09-07T14:51:17;5.47;;;4.25;;
9188;SDS011;34313;50.780;6.084;2023-09-07T14:53:42;10.63;;;3.97;;
9188;SDS011;34313;50.780;6.084;2023-09-07T14:56:08;5.45;;;3.78;;
9188;SDS011;34313;50.780;6.084;2023-09-07T14:58:34;4.75;;;3.10;;